Kelly Springs, Alabama
Current Conditions -  °F | °C
As of 12:53 AM on Thursday 23 Oct 2014 (Local Time) from KDHN Reporting Station
Clear Clear  
Wind Chill: 46°   Ceiling: Unl
Heat Index: 49°   Visibility: 10mi
Dew Point: 45°   Wind: 7mph
Humidity: 86%   Direction: 20°NNE
Pressure: 30.1"   Gusts: NA
Location:  31.2035°N, 85.4998°W
Report Text: KDHN 230553Z AUTO 02006KT 10SM CLR 09/07 A3010 RMK AO2 SLP192 T00940072 10156 20078 402440078 58006
Loading
Personal Weather Stations






























Interactive Weather Map
Tropical Storm Tracking
New forecast layout! Learn more

10-Day Weather Forecast

Advertisements
Track Severe Weather on mobile